Ana Sayfa
METAR-TAF:

METAR-TAF

Havaalanları :

Asunción, Paraguay

Enlem: 25-16S, Boylam: 057-38W, yükseklik: 101 m

Güncel hava durumu gözlemi

Rapor saat 12:00 UTC de 12 dakika önce yapıldı.
Rüzgar güney/güneydoğudan 4 kt, güneydoğu ve güneybatı arasında değişken
Sıcaklık 19°C
Nem 83%
Basınç 1021 hPa
Görüş mesafesi 10 km veya daha fazla
1500 m altında bulut yok ve kümülonimbus yok

METAR: SGAS 171200Z 16004KT 140V220 CAVOK 19/16 Q1021

Saat: 08:12 (12:12 UTC)

Tahmin

Rapor saat 10:25 UTC de 1 saat ve 47 dakika önce yapıldı.
Ayın 17'si saat 12 UTC'den ayın 18'si saat 12 UTC'ye kadar geçerli Tahmin
Rüzgar güney/güneydoğudan 9 kt
Görüş mesafesi 10 km veya daha fazla
1500 m altında bulut yok ve kümülonimbus yok
Olasılık 30%
ayın 18'si saat 07 UTC'den ayın 18'si saat 11 UTC'ye kadar
Rüzgar değişken yönden 3 kt
Görüş mesafesi: 5000 m
Pus,

TAF: SGAS 171025Z 1712/1812 16009KT CAVOK TX25/1718Z TN14/1809Z PROB30 1807/1811 VRB03KT 5000 BR NSC

4.000'den fazla havaalanı için hava durumu gözlemleri ve tahminleri (METAR ve TAF raporları).

Kullanılabilir istasyonlar harita üzerinde sarı ve kırmızı noktalarla gösterilir.

İstasyonun adını görmek için fareyi noktanın üzerinde gezdirin.

Sonrasında hava gözlem ve tahminlerini görmek için tıklayın.

Haritayı değiştirmek için: yaklaştırmak için siyah artı işaretli yeşil düğmeye ve uzaklaştırmak için de eksi işaretli düğmeye hızla tıklayın; bitişik haritalar için yeşil okları kullanın.


METAR-TAF: